sensor_id;sensor_type;location;lat;lon;timestamp;pressure;altitude;pressure_sealevel;temperature;humidity
7760;BME280;3924;48.830;9.262;2023-08-24T00:01:29;98736.72;;;23.13;63.64
7760;BME280;3924;48.830;9.262;2023-08-24T00:03:56;98738.69;;;23.13;63.74
7760;BME280;3924;48.830;9.262;2023-08-24T00:06:22;98730.31;;;23.09;63.72
7760;BME280;3924;48.830;9.262;2023-08-24T00:08:49;98731.06;;;23.06;63.96
7760;BME280;3924;48.830;9.262;2023-08-24T00:11:15;98731.41;;;23.05;63.96
7760;BME280;3924;48.830;9.262;2023-08-24T00:13:42;98741.31;;;23.06;64.07
7760;BME280;3924;48.830;9.262;2023-08-24T00:16:27;98739.69;;;23.01;64.00
7760;BME280;3924;48.830;9.262;2023-08-24T00:18:53;98732.31;;;22.86;64.33
7760;BME280;3924;48.830;9.262;2023-08-24T00:21:20;98737.63;;;22.75;64.58
7760;BME280;3924;48.830;9.262;2023-08-24T00:23:50;98736.88;;;22.78;64.71
7760;BME280;3924;48.830;9.262;2023-08-24T00:26:17;98734.19;;;22.82;64.73
7760;BME280;3924;48.830;9.262;2023-08-24T00:28:44;98727.78;;;22.78;64.85
7760;BME280;3924;48.830;9.262;2023-08-24T00:31:10;98730.50;;;22.74;64.66
7760;BME280;3924;48.830;9.262;2023-08-24T00:33:38;98721.31;;;22.66;65.36
7760;BME280;3924;48.830;9.262;2023-08-24T00:36:06;98717.75;;;22.66;65.33
7760;BME280;3924;48.830;9.262;2023-08-24T00:38:33;98714.19;;;22.65;65.17
7760;BME280;3924;48.830;9.262;2023-08-24T00:41:00;98709.75;;;22.61;65.35
7760;BME280;3924;48.830;9.262;2023-08-24T00:43:27;98714.78;;;22.55;65.55
7760;BME280;3924;48.830;9.262;2023-08-24T00:45:59;98702.13;;;22.54;65.63
7760;BME280;3924;48.830;9.262;2023-08-24T00:48:28;98703.34;;;22.57;65.83
7760;BME280;3924;48.830;9.262;2023-08-24T00:50:59;98697.47;;;22.58;65.69
7760;BME280;3924;48.830;9.262;2023-08-24T00:53:28;98703.81;;;22.59;65.91
7760;BME280;3924;48.830;9.262;2023-08-24T00:55:56;98694.63;;;22.55;65.79
7760;BME280;3924;48.830;9.262;2023-08-24T00:58:23;98704.97;;;22.58;65.93
7760;BME280;3924;48.830;9.262;2023-08-24T01:00:51;98702.13;;;22.54;65.79
7760;BME280;3924;48.830;9.262;2023-08-24T01:03:19;98696.91;;;22.49;65.86
7760;BME280;3924;48.830;9.262;2023-08-24T01:05:45;98699.25;;;22.47;66.24
7760;BME280;3924;48.830;9.262;2023-08-24T01:08:12;98695.31;;;22.48;66.21
7760;BME280;3924;48.830;9.262;2023-08-24T01:10:49;98692.94;;;22.47;66.03
7760;BME280;3924;48.830;9.262;2023-08-24T01:13:30;98683.84;;;22.46;66.34
7760;BME280;3924;48.830;9.262;2023-08-24T01:16:06;98677.94;;;22.48;66.19
7760;BME280;3924;48.830;9.262;2023-08-24T01:18:34;98687.41;;;22.47;66.16
7760;BME280;3924;48.830;9.262;2023-08-24T01:21:04;98689.38;;;22.46;66.31
7760;BME280;3924;48.830;9.262;2023-08-24T01:23:48;98687.41;;;22.47;66.19
7760;BME280;3924;48.830;9.262;2023-08-24T01:26:19;98692.56;;;22.48;66.32
7760;BME280;3924;48.830;9.262;2023-08-24T01:28:47;98682.59;;;22.44;66.43
7760;BME280;3924;48.830;9.262;2023-08-24T01:31:15;98666.69;;;22.37;66.42
7760;BME280;3924;48.830;9.262;2023-08-24T01:33:43;98675.31;;;22.32;66.63
7760;BME280;3924;48.830;9.262;2023-08-24T01:36:11;98677.56;;;22.26;66.78
7760;BME280;3924;48.830;9.262;2023-08-24T01:38:38;98673.13;;;22.22;66.78
7760;BME280;3924;48.830;9.262;2023-08-24T01:41:25;98675.03;;;22.18;67.13
7760;BME280;3924;48.830;9.262;2023-08-24T01:43:54;98682.16;;;22.19;67.10
7760;BME280;3924;48.830;9.262;2023-08-24T01:46:24;98686.53;;;22.20;67.27
7760;BME280;3924;48.830;9.262;2023-08-24T01:48:52;98686.53;;;22.20;67.18
7760;BME280;3924;48.830;9.262;2023-08-24T01:51:19;98682.88;;;22.16;67.22
7760;BME280;3924;48.830;9.262;2023-08-24T01:53:46;98682.88;;;22.16;67.46
7760;BME280;3924;48.830;9.262;2023-08-24T01:56:15;98678.97;;;22.17;67.54
7760;BME280;3924;48.830;9.262;2023-08-24T01:58:42;98677.34;;;22.16;67.50
7760;BME280;3924;48.830;9.262;2023-08-24T02:01:09;98670.25;;;22.15;67.52
7760;BME280;3924;48.830;9.262;2023-08-24T02:03:37;98684.00;;;22.11;67.83
7760;BME280;3924;48.830;9.262;2023-08-24T02:06:05;98677.94;;;22.05;68.07
7760;BME280;3924;48.830;9.262;2023-08-24T02:08:33;98684.56;;;22.01;67.92
7760;BME280;3924;48.830;9.262;2023-08-24T02:10:59;98684.50;;;21.97;68.10
7760;BME280;3924;48.830;9.262;2023-08-24T02:13:26;98683.63;;;21.93;68.34
7760;BME280;3924;48.830;9.262;2023-08-24T02:16:03;98679.69;;;21.94;68.32
7760;BME280;3924;48.830;9.262;2023-08-24T02:18:30;98686.09;;;21.98;68.38
7760;BME280;3924;48.830;9.262;2023-08-24T02:20:56;98677.81;;;21.98;68.31
7760;BME280;3924;48.830;9.262;2023-08-24T02:23:23;98690.06;;;22.01;68.24
7760;BME280;3924;48.830;9.262;2023-08-24T02:25:49;98684.78;;;21.92;68.25
7760;BME280;3924;48.830;9.262;2023-08-24T02:28:16;98675.16;;;21.82;68.62
7760;BME280;3924;48.830;9.262;2023-08-24T02:30:42;98677.53;;;21.84;68.72
7760;BME280;3924;48.830;9.262;2023-08-24T02:33:09;98678.38;;;21.88;68.87
7760;BME280;3924;48.830;9.262;2023-08-24T02:35:36;98686.38;;;21.93;68.62
7760;BME280;3924;48.830;9.262;2023-08-24T02:38:03;98672.94;;;21.92;68.77
7760;BME280;3924;48.830;9.262;2023-08-24T02:40:29;98667.47;;;21.95;68.94
7760;BME280;3924;48.830;9.262;2023-08-24T02:42:56;98668.66;;;21.94;68.91
7760;BME280;3924;48.830;9.262;2023-08-24T02:45:22;98669.81;;;21.93;68.90
7760;BME280;3924;48.830;9.262;2023-08-24T02:47:49;98670.56;;;21.90;69.06
7760;BME280;3924;48.830;9.262;2023-08-24T02:50:16;98679.97;;;21.89;68.89
7760;BME280;3924;48.830;9.262;2023-08-24T02:52:42;98667.78;;;21.90;69.09
7760;BME280;3924;48.830;9.262;2023-08-24T02:55:09;98675.19;;;21.86;69.16
7760;BME280;3924;48.830;9.262;2023-08-24T02:57:36;98673.59;;;21.85;69.12
7760;BME280;3924;48.830;9.262;2023-08-24T03:00:03;98670.34;;;21.79;69.17
7760;BME280;3924;48.830;9.262;2023-08-24T03:02:33;98669.44;;;21.75;69.40
7760;BME280;3924;48.830;9.262;2023-08-24T03:05:00;98670.69;;;21.78;69.42
7760;BME280;3924;48.830;9.262;2023-08-24T03:07:27;98669.53;;;21.79;69.35
7760;BME280;3924;48.830;9.262;2023-08-24T03:09:53;98660.84;;;21.77;69.53
7760;BME280;3924;48.830;9.262;2023-08-24T03:12:20;98661.63;;;21.77;69.41
7760;BME280;3924;48.830;9.262;2023-08-24T03:14:46;98659.66;;;21.78;69.42
7760;BME280;3924;48.830;9.262;2023-08-24T03:17:13;98653.72;;;21.76;69.36
7760;BME280;3924;48.830;9.262;2023-08-24T03:19:39;98655.16;;;21.70;69.63
7760;BME280;3924;48.830;9.262;2023-08-24T03:22:06;98661.25;;;21.60;69.73
7760;BME280;3924;48.830;9.262;2023-08-24T03:24:32;98651.25;;;21.51;70.08
7760;BME280;3924;48.830;9.262;2023-08-24T03:26:59;98650.44;;;21.51;70.19
7760;BME280;3924;48.830;9.262;2023-08-24T03:29:25;98648.47;;;21.51;70.10
7760;BME280;3924;48.830;9.262;2023-08-24T03:31:52;98660.84;;;21.57;70.09
7760;BME280;3924;48.830;9.262;2023-08-24T03:34:20;98658.44;;;21.56;70.33
7760;BME280;3924;48.830;9.262;2023-08-24T03:36:47;98656.34;;;21.49;70.42
7760;BME280;3924;48.830;9.262;2023-08-24T03:39:16;98663.28;;;21.43;70.48
7760;BME280;3924;48.830;9.262;2023-08-24T03:41:43;98650.06;;;21.33;70.77
7760;BME280;3924;48.830;9.262;2023-08-24T03:44:09;98646.13;;;21.34;70.71
7760;BME280;3924;48.830;9.262;2023-08-24T03:46:36;98631.13;;;21.32;70.80
7760;BME280;3924;48.830;9.262;2023-08-24T03:49:03;98618.38;;;21.27;70.84
7760;BME280;3924;48.830;9.262;2023-08-24T03:51:29;98626.50;;;21.20;71.11
7760;BME280;3924;48.830;9.262;2023-08-24T03:53:55;98620.78;;;21.09;70.94
7760;BME280;3924;48.830;9.262;2023-08-24T03:56:22;98619.97;;;21.09;71.43
7760;BME280;3924;48.830;9.262;2023-08-24T03:58:48;98620.78;;;21.09;71.37
7760;BME280;3924;48.830;9.262;2023-08-24T04:01:15;98613.72;;;21.12;71.20
7760;BME280;3924;48.830;9.262;2023-08-24T04:03:42;98604.06;;;21.02;71.47
7760;BME280;3924;48.830;9.262;2023-08-24T04:06:08;98608.84;;;21.05;71.55
7760;BME280;3924;48.830;9.262;2023-08-24T04:08:35;98610.59;;;21.13;71.50
7760;BME280;3924;48.830;9.262;2023-08-24T04:11:01;98619.38;;;21.19;71.51
7760;BME280;3924;48.830;9.262;2023-08-24T04:13:28;98607.66;;;21.22;71.48
7760;BME280;3924;48.830;9.262;2023-08-24T04:15:54;98603.34;;;21.24;71.54
7760;BME280;3924;48.830;9.262;2023-08-24T04:18:21;98598.66;;;21.25;71.28
7760;BME280;3924;48.830;9.262;2023-08-24T04:20:47;98597.06;;;21.24;71.26
7760;BME280;3924;48.830;9.262;2023-08-24T04:23:14;98598.22;;;21.23;71.29
7760;BME280;3924;48.830;9.262;2023-08-24T04:25:40;98601.69;;;21.20;71.61
7760;BME280;3924;48.830;9.262;2023-08-24T04:28:07;98594.56;;;21.19;71.61
7760;BME280;3924;48.830;9.262;2023-08-24T04:30:33;98593.50;;;21.23;71.42
7760;BME280;3924;48.830;9.262;2023-08-24T04:33:00;98582.38;;;21.20;71.50
7760;BME280;3924;48.830;9.262;2023-08-24T04:35:27;98592.28;;;21.21;71.22
7760;BME280;3924;48.830;9.262;2023-08-24T04:37:53;98586.44;;;21.26;71.55
7760;BME280;3924;48.830;9.262;2023-08-24T04:40:21;98594.38;;;21.27;71.35
7760;BME280;3924;48.830;9.262;2023-08-24T04:42:48;98585.28;;;21.27;71.21
7760;BME280;3924;48.830;9.262;2023-08-24T04:45:14;98591.28;;;21.29;71.38
7760;BME280;3924;48.830;9.262;2023-08-24T04:47:41;98590.13;;;21.30;71.60
7760;BME280;3924;48.830;9.262;2023-08-24T04:50:07;98585.78;;;21.29;71.35
7760;BME280;3924;48.830;9.262;2023-08-24T04:52:34;98580.25;;;21.29;71.29
7760;BME280;3924;48.830;9.262;2023-08-24T04:55:01;98575.16;;;21.31;71.41
7760;BME280;3924;48.830;9.262;2023-08-24T04:57:27;98584.97;;;21.28;71.84
7760;BME280;3924;48.830;9.262;2023-08-24T04:59:54;98572.31;;;21.27;71.31
7760;BME280;3924;48.830;9.262;2023-08-24T05:02:20;98581.41;;;21.28;71.46
7760;BME280;3924;48.830;9.262;2023-08-24T05:04:47;98580.94;;;21.26;71.68
7760;BME280;3924;48.830;9.262;2023-08-24T05:07:15;98581.41;;;21.28;71.52
7760;BME280;3924;48.830;9.262;2023-08-24T05:09:41;98584.22;;;21.32;71.39
7760;BME280;3924;48.830;9.262;2023-08-24T05:12:11;98588.31;;;21.38;71.10
7760;BME280;3924;48.830;9.262;2023-08-24T05:14:37;98572.97;;;21.40;71.15
7760;BME280;3924;48.830;9.262;2023-08-24T05:17:04;98575.44;;;21.45;71.00
7760;BME280;3924;48.830;9.262;2023-08-24T05:19:31;98564.91;;;21.51;71.09
7760;BME280;3924;48.830;9.262;2023-08-24T05:21:57;98556.34;;;21.56;70.97
7760;BME280;3924;48.830;9.262;2023-08-24T05:24:24;98554.81;;;21.58;70.69
7760;BME280;3924;48.830;9.262;2023-08-24T05:26:50;98546.13;;;21.56;70.88
7760;BME280;3924;48.830;9.262;2023-08-24T05:29:17;98547.84;;;21.65;70.72
7760;BME280;3924;48.830;9.262;2023-08-24T05:31:43;98544.13;;;21.76;70.65
7760;BME280;3924;48.830;9.262;2023-08-24T05:34:10;98539.56;;;21.88;70.24
7760;BME280;3924;48.830;9.262;2023-08-24T05:36:36;98540.06;;;21.93;70.09
7760;BME280;3924;48.830;9.262;2023-08-24T05:39:03;98539.81;;;22.02;69.95
7760;BME280;3924;48.830;9.262;2023-08-24T05:41:33;98539.94;;;22.09;69.52
7760;BME280;3924;48.830;9.262;2023-08-24T05:43:59;98537.69;;;22.15;69.64
7760;BME280;3924;48.830;9.262;2023-08-24T05:46:26;98535.78;;;22.19;69.35
7760;BME280;3924;48.830;9.262;2023-08-24T05:48:53;98528.34;;;22.23;69.14
7760;BME280;3924;48.830;9.262;2023-08-24T05:51:19;98534.72;;;22.27;69.25
7760;BME280;3924;48.830;9.262;2023-08-24T05:53:46;98537.91;;;22.29;69.18
7760;BME280;3924;48.830;9.262;2023-08-24T05:56:12;98535.25;;;22.36;68.93
7760;BME280;3924;48.830;9.262;2023-08-24T05:58:39;98528.56;;;22.37;68.99
7760;BME280;3924;48.830;9.262;2023-08-24T06:01:05;98532.56;;;22.39;68.72
7760;BME280;3924;48.830;9.262;2023-08-24T06:03:31;98534.16;;;22.41;68.62
7760;BME280;3924;48.830;9.262;2023-08-24T06:06:01;98542.91;;;22.46;68.54
7760;BME280;3924;48.830;9.262;2023-08-24T06:08:28;98534.31;;;22.51;68.41
7760;BME280;3924;48.830;9.262;2023-08-24T06:10:55;98535.16;;;22.55;68.26
7760;BME280;3924;48.830;9.262;2023-08-24T06:13:22;98531.28;;;22.60;68.06
7760;BME280;3924;48.830;9.262;2023-08-24T06:15:48;98538.81;;;22.63;68.19
7760;BME280;3924;48.830;9.262;2023-08-24T06:18:15;98537.59;;;22.60;67.93
7760;BME280;3924;48.830;9.262;2023-08-24T06:20:42;98538.13;;;22.70;67.48
7760;BME280;3924;48.830;9.262;2023-08-24T06:23:09;98544.50;;;22.74;67.79
7760;BME280;3924;48.830;9.262;2023-08-24T06:25:39;98546.19;;;22.82;67.47
7760;BME280;3924;48.830;9.262;2023-08-24T06:28:06;98544.03;;;22.95;67.24
7760;BME280;3924;48.830;9.262;2023-08-24T06:30:37;98556.84;;;23.06;66.96
7760;BME280;3924;48.830;9.262;2023-08-24T06:33:05;98553.31;;;23.09;66.81
7760;BME280;3924;48.830;9.262;2023-08-24T06:35:35;98557.34;;;23.15;66.55
7760;BME280;3924;48.830;9.262;2023-08-24T06:38:04;98559.25;;;23.11;66.76
7760;BME280;3924;48.830;9.262;2023-08-24T06:40:35;98569.38;;;23.00;66.69
7760;BME280;3924;48.830;9.262;2023-08-24T06:43:02;98566.44;;;22.86;67.12
7760;BME280;3924;48.830;9.262;2023-08-24T06:45:28;98588.41;;;22.79;67.69
7760;BME280;3924;48.830;9.262;2023-08-24T06:47:55;98598.63;;;22.75;67.52
7760;BME280;3924;48.830;9.262;2023-08-24T06:50:21;98610.19;;;22.57;67.89
7760;BME280;3924;48.830;9.262;2023-08-24T06:52:48;98620.28;;;22.46;68.05
7760;BME280;3924;48.830;9.262;2023-08-24T06:55:15;98628.72;;;22.30;68.47
7760;BME280;3924;48.830;9.262;2023-08-24T06:57:41;98641.81;;;22.14;68.70
7760;BME280;3924;48.830;9.262;2023-08-24T07:00:08;98655.84;;;22.05;69.28
7760;BME280;3924;48.830;9.262;2023-08-24T07:02:36;98651.03;;;22.02;69.36
7760;BME280;3924;48.830;9.262;2023-08-24T07:05:03;98636.09;;;22.03;69.23
7760;BME280;3924;48.830;9.262;2023-08-24T07:07:31;98632.75;;;22.14;69.21
7760;BME280;3924;48.830;9.262;2023-08-24T07:09:58;98613.66;;;22.28;68.92
7760;BME280;3924;48.830;9.262;2023-08-24T07:12:24;98608.56;;;22.53;68.72
7760;BME280;3924;48.830;9.262;2023-08-24T07:14:51;98606.03;;;22.71;68.20
7760;BME280;3924;48.830;9.262;2023-08-24T07:17:17;98601.78;;;22.77;67.87
7760;BME280;3924;48.830;9.262;2023-08-24T07:19:44;98592.13;;;22.86;67.78
7760;BME280;3924;48.830;9.262;2023-08-24T07:22:11;98576.91;;;23.03;67.52
7760;BME280;3924;48.830;9.262;2023-08-24T07:24:37;98580.97;;;23.43;66.84
7760;BME280;3924;48.830;9.262;2023-08-24T07:27:11;98578.78;;;23.59;66.25
7760;BME280;3924;48.830;9.262;2023-08-24T07:29:38;98584.81;;;23.65;66.18
7760;BME280;3924;48.830;9.262;2023-08-24T07:32:04;98573.03;;;23.71;65.85
7760;BME280;3924;48.830;9.262;2023-08-24T07:34:31;98581.47;;;23.86;65.61
7760;BME280;3924;48.830;9.262;2023-08-24T07:36:58;98580.19;;;23.76;65.82
7760;BME280;3924;48.830;9.262;2023-08-24T07:39:24;98581.72;;;23.70;65.96
7760;BME280;3924;48.830;9.262;2023-08-24T07:41:52;98583.31;;;23.71;65.77
7760;BME280;3924;48.830;9.262;2023-08-24T07:44:18;98575.63;;;23.57;66.27
7760;BME280;3924;48.830;9.262;2023-08-24T07:46:46;98579.16;;;23.54;66.15
7760;BME280;3924;48.830;9.262;2023-08-24T07:49:13;98585.13;;;23.60;66.20
7760;BME280;3924;48.830;9.262;2023-08-24T07:51:40;98580.72;;;23.89;65.55
7760;BME280;3924;48.830;9.262;2023-08-24T07:54:06;98581.22;;;24.01;65.04
7760;BME280;3924;48.830;9.262;2023-08-24T07:56:33;98574.44;;;24.36;64.31
7760;BME280;3924;48.830;9.262;2023-08-24T07:59:00;98578.28;;;24.76;63.27
7760;BME280;3924;48.830;9.262;2023-08-24T08:01:27;98569.81;;;25.13;62.38
7760;BME280;3924;48.830;9.262;2023-08-24T08:03:53;98575.84;;;25.33;61.96
7760;BME280;3924;48.830;9.262;2023-08-24T08:06:20;98579.91;;;25.60;61.03
7760;BME280;3924;48.830;9.262;2023-08-24T08:08:48;98584.66;;;25.63;60.98
7760;BME280;3924;48.830;9.262;2023-08-24T08:11:17;98590.16;;;25.46;61.32
7760;BME280;3924;48.830;9.262;2023-08-24T08:13:44;98585.41;;;25.43;61.00
7760;BME280;3924;48.830;9.262;2023-08-24T08:16:10;98592.97;;;25.49;60.88
7760;BME280;3924;48.830;9.262;2023-08-24T08:18:38;98588.59;;;25.52;61.12
7760;BME280;3924;48.830;9.262;2023-08-24T08:21:14;98575.53;;;25.59;60.95
7760;BME280;3924;48.830;9.262;2023-08-24T08:23:41;98574.69;;;25.45;61.03
7760;BME280;3924;48.830;9.262;2023-08-24T08:26:10;98560.13;;;25.73;60.34
7760;BME280;3924;48.830;9.262;2023-08-24T08:28:36;98572.50;;;26.18;59.56
7760;BME280;3924;48.830;9.262;2023-08-24T08:31:03;98569.72;;;26.22;59.29
7760;BME280;3924;48.830;9.262;2023-08-24T08:33:29;98573.69;;;26.10;59.52
7760;BME280;3924;48.830;9.262;2023-08-24T08:35:56;98579.25;;;26.17;59.34
7760;BME280;3924;48.830;9.262;2023-08-24T08:38:23;98578.44;;;26.27;59.36
7760;BME280;3924;48.830;9.262;2023-08-24T08:40:54;98576.09;;;26.47;58.69
7760;BME280;3924;48.830;9.262;2023-08-24T08:43:22;98572.09;;;26.66;58.46
7760;BME280;3924;48.830;9.262;2023-08-24T08:45:50;98584.03;;;26.41;58.65
7760;BME280;3924;48.830;9.262;2023-08-24T08:48:18;98578.06;;;26.47;58.53
7760;BME280;3924;48.830;9.262;2023-08-24T08:50:48;98577.66;;;26.66;58.13
7760;BME280;3924;48.830;9.262;2023-08-24T08:53:15;98574.44;;;26.85;57.65
7760;BME280;3924;48.830;9.262;2023-08-24T08:55:43;98570.47;;;26.86;57.40
7760;BME280;3924;48.830;9.262;2023-08-24T08:58:11;98570.44;;;26.90;57.54
7760;BME280;3924;48.830;9.262;2023-08-24T09:00:37;98563.22;;;27.21;57.03
7760;BME280;3924;48.830;9.262;2023-08-24T09:03:04;98563.09;;;27.49;56.33
7760;BME280;3924;48.830;9.262;2023-08-24T09:05:32;98570.16;;;27.75;55.68
7760;BME280;3924;48.830;9.262;2023-08-24T09:07:59;98562.06;;;27.95;55.45
7760;BME280;3924;48.830;9.262;2023-08-24T09:10:26;98562.13;;;27.88;55.84
7760;BME280;3924;48.830;9.262;2023-08-24T09:12:52;98563.72;;;27.86;55.58
7760;BME280;3924;48.830;9.262;2023-08-24T09:15:27;98553.19;;;28.11;55.22
7760;BME280;3924;48.830;9.262;2023-08-24T09:18:00;98542.72;;;28.26;54.65
7760;BME280;3924;48.830;9.262;2023-08-24T09:20:30;98535.38;;;28.46;54.18
7760;BME280;3924;48.830;9.262;2023-08-24T09:22:57;98540.38;;;28.66;54.07
7760;BME280;3924;48.830;9.262;2023-08-24T09:25:24;98521.75;;;28.55;54.08
7760;BME280;3924;48.830;9.262;2023-08-24T09:28:01;98519.22;;;28.68;53.87
7760;BME280;3924;48.830;9.262;2023-08-24T09:30:37;98505.59;;;28.74;53.59
7760;BME280;3924;48.830;9.262;2023-08-24T09:33:13;98504.78;;;28.77;53.47
7760;BME280;3924;48.830;9.262;2023-08-24T09:35:39;98495.41;;;28.98;53.43
7760;BME280;3924;48.830;9.262;2023-08-24T09:38:17;98492.47;;;29.08;52.95
7760;BME280;3924;48.830;9.262;2023-08-24T09:40:45;98482.19;;;29.32;52.63
7760;BME280;3924;48.830;9.262;2023-08-24T09:43:15;98490.03;;;29.41;52.46
7760;BME280;3924;48.830;9.262;2023-08-24T09:45:55;98479.19;;;29.47;52.01
7760;BME280;3924;48.830;9.262;2023-08-24T09:48:23;98478.69;;;29.55;51.88
7760;BME280;3924;48.830;9.262;2023-08-24T09:50:56;98476.53;;;29.66;52.04
7760;BME280;3924;48.830;9.262;2023-08-24T09:53:23;98467.66;;;29.72;51.58
7760;BME280;3924;48.830;9.262;2023-08-24T09:56:00;98460.13;;;29.92;51.13
7760;BME280;3924;48.830;9.262;2023-08-24T09:58:28;98444.84;;;30.00;51.24
7760;BME280;3924;48.830;9.262;2023-08-24T10:00:56;98441.06;;;30.10;50.81
7760;BME280;3924;48.830;9.262;2023-08-24T10:03:26;98427.44;;;30.12;50.48
7760;BME280;3924;48.830;9.262;2023-08-24T10:05:55;98424.91;;;30.21;50.68
7760;BME280;3924;48.830;9.262;2023-08-24T10:08:41;98412.34;;;30.30;50.79
7760;BME280;3924;48.830;9.262;2023-08-24T10:11:10;98407.50;;;30.34;50.69
7760;BME280;3924;48.830;9.262;2023-08-24T10:13:44;98412.03;;;30.47;50.20
7760;BME280;3924;48.830;9.262;2023-08-24T10:16:14;98401.81;;;30.57;49.68
7760;BME280;3924;48.830;9.262;2023-08-24T10:18:43;98397.75;;;30.62;49.90
7760;BME280;3924;48.830;9.262;2023-08-24T10:21:10;98391.16;;;30.72;49.60
7760;BME280;3924;48.830;9.262;2023-08-24T10:23:37;98388.13;;;30.83;49.43
7760;BME280;3924;48.830;9.262;2023-08-24T10:26:06;98386.75;;;30.91;49.30
7760;BME280;3924;48.830;9.262;2023-08-24T10:28:34;98390.63;;;30.97;49.17
7760;BME280;3924;48.830;9.262;2023-08-24T10:31:02;98387.66;;;31.04;49.50
7760;BME280;3924;48.830;9.262;2023-08-24T10:33:30;98373.84;;;31.13;48.47
7760;BME280;3924;48.830;9.262;2023-08-24T10:35:57;98381.94;;;31.27;48.56
7760;BME280;3924;48.830;9.262;2023-08-24T10:38:25;98376.78;;;31.26;48.82
7760;BME280;3924;48.830;9.262;2023-08-24T10:40:53;98368.06;;;31.20;48.77
7760;BME280;3924;48.830;9.262;2023-08-24T10:43:22;98364.75;;;31.09;48.97
7760;BME280;3924;48.830;9.262;2023-08-24T10:45:59;98368.72;;;31.28;48.59
7760;BME280;3924;48.830;9.262;2023-08-24T10:48:31;98368.31;;;31.46;48.47
7760;BME280;3924;48.830;9.262;2023-08-24T10:53:54;98346.56;;;31.82;47.90
7760;BME280;3924;48.830;9.262;2023-08-24T10:56:30;98330.09;;;31.84;48.09
7760;BME280;3924;48.830;9.262;2023-08-24T10:59:12;98330.94;;;31.98;47.84
7760;BME280;3924;48.830;9.262;2023-08-24T11:01:58;98336.59;;;32.10;47.31
7760;BME280;3924;48.830;9.262;2023-08-24T11:04:25;98316.47;;;31.99;47.84
7760;BME280;3924;48.830;9.262;2023-08-24T11:06:52;98321.50;;;31.92;47.74
7760;BME280;3924;48.830;9.262;2023-08-24T11:09:19;98318.59;;;31.95;47.57
7760;BME280;3924;48.830;9.262;2023-08-24T11:12:02;98316.94;;;31.81;48.37
7760;BME280;3924;48.830;9.262;2023-08-24T11:14:48;98303.00;;;31.94;47.97
7760;BME280;3924;48.830;9.262;2023-08-24T11:17:20;98315.50;;;32.06;48.24
7760;BME280;3924;48.830;9.262;2023-08-24T11:19:51;98317.00;;;31.94;48.49
7760;BME280;3924;48.830;9.262;2023-08-24T11:22:18;98318.13;;;31.97;48.11
7760;BME280;3924;48.830;9.262;2023-08-24T11:24:45;98311.06;;;32.21;47.44
7760;BME280;3924;48.830;9.262;2023-08-24T11:27:12;98297.66;;;32.42;47.63
7760;BME280;3924;48.830;9.262;2023-08-24T11:29:38;98298.81;;;32.57;47.28
7760;BME280;3924;48.830;9.262;2023-08-24T11:32:05;98287.56;;;32.57;47.37
7760;BME280;3924;48.830;9.262;2023-08-24T11:34:34;98277.03;;;32.61;47.37
7760;BME280;3924;48.830;9.262;2023-08-24T11:37:00;98270.97;;;32.75;46.99
7760;BME280;3924;48.830;9.262;2023-08-24T11:39:27;98267.97;;;32.95;47.00
7760;BME280;3924;48.830;9.262;2023-08-24T11:42:01;98254.13;;;33.01;46.77
7760;BME280;3924;48.830;9.262;2023-08-24T11:44:30;98257.69;;;33.14;46.67
7760;BME280;3924;48.830;9.262;2023-08-24T11:46:57;98250.38;;;33.29;46.48
7760;BME280;3924;48.830;9.262;2023-08-24T11:49:25;98252.06;;;33.39;46.34
7760;BME280;3924;48.830;9.262;2023-08-24T11:51:51;98256.97;;;33.35;46.81
7760;BME280;3924;48.830;9.262;2023-08-24T11:54:18;98256.97;;;33.48;46.20
7760;BME280;3924;48.830;9.262;2023-08-24T11:56:45;98250.00;;;33.53;46.07
7760;BME280;3924;48.830;9.262;2023-08-24T11:59:13;98248.28;;;33.55;45.99
7760;BME280;3924;48.830;9.262;2023-08-24T12:01:41;98236.75;;;33.40;46.45
7760;BME280;3924;48.830;9.262;2023-08-24T12:04:08;98246.97;;;33.47;46.25
7760;BME280;3924;48.830;9.262;2023-08-24T12:06:35;98253.03;;;33.58;46.32
7760;BME280;3924;48.830;9.262;2023-08-24T12:09:05;98243.34;;;33.81;45.83
7760;BME280;3924;48.830;9.262;2023-08-24T12:11:38;98244.16;;;34.04;45.97
7760;BME280;3924;48.830;9.262;2023-08-24T12:14:13;98239.88;;;34.12;45.59
7760;BME280;3924;48.830;9.262;2023-08-24T12:16:42;98232.41;;;34.18;45.54
7760;BME280;3924;48.830;9.262;2023-08-24T12:19:09;98222.19;;;34.11;45.63
7760;BME280;3924;48.830;9.262;2023-08-24T12:21:36;98223.22;;;34.26;45.42
7760;BME280;3924;48.830;9.262;2023-08-24T12:24:04;98212.41;;;34.25;45.46
7760;BME280;3924;48.830;9.262;2023-08-24T12:26:33;98208.97;;;34.30;45.63
7760;BME280;3924;48.830;9.262;2023-08-24T12:29:05;98195.31;;;34.41;44.86
7760;BME280;3924;48.830;9.262;2023-08-24T12:31:33;98191.56;;;34.44;45.08
7760;BME280;3924;48.830;9.262;2023-08-24T12:36:27;98197.72;;;34.30;45.46
7760;BME280;3924;48.830;9.262;2023-08-24T12:38:54;98180.13;;;34.17;45.74
7760;BME280;3924;48.830;9.262;2023-08-24T12:41:21;98160.22;;;34.02;46.03
7760;BME280;3924;48.830;9.262;2023-08-24T12:43:48;98161.34;;;34.05;45.90
7760;BME280;3924;48.830;9.262;2023-08-24T12:46:14;98148.22;;;34.11;45.86
7760;BME280;3924;48.830;9.262;2023-08-24T12:48:41;98143.72;;;34.13;45.88
7760;BME280;3924;48.830;9.262;2023-08-24T12:51:08;98141.38;;;34.21;45.57
7760;BME280;3924;48.830;9.262;2023-08-24T12:53:35;98142.63;;;34.51;45.16
7760;BME280;3924;48.830;9.262;2023-08-24T12:56:01;98144.63;;;34.41;45.17
7760;BME280;3924;48.830;9.262;2023-08-24T12:58:28;98144.66;;;34.50;45.17
7760;BME280;3924;48.830;9.262;2023-08-24T13:00:55;98142.81;;;34.66;44.96
7760;BME280;3924;48.830;9.262;2023-08-24T13:03:21;98145.97;;;34.77;45.05
7760;BME280;3924;48.830;9.262;2023-08-24T13:05:48;98139.25;;;34.74;44.81
7760;BME280;3924;48.830;9.262;2023-08-24T13:08:14;98129.84;;;34.68;45.08
7760;BME280;3924;48.830;9.262;2023-08-24T13:10:41;98113.72;;;34.60;44.98
7760;BME280;3924;48.830;9.262;2023-08-24T13:13:08;98128.72;;;34.57;44.73
7760;BME280;3924;48.830;9.262;2023-08-24T13:15:36;98117.94;;;34.64;44.94
7760;BME280;3924;48.830;9.262;2023-08-24T13:18:03;98113.56;;;34.72;44.86
7760;BME280;3924;48.830;9.262;2023-08-24T13:20:29;98114.69;;;34.84;44.52
7760;BME280;3924;48.830;9.262;2023-08-24T13:22:56;98117.19;;;34.82;44.48
7760;BME280;3924;48.830;9.262;2023-08-24T13:25:22;98112.25;;;34.95;44.45
7760;BME280;3924;48.830;9.262;2023-08-24T13:27:49;98094.72;;;35.00;44.09
7760;BME280;3924;48.830;9.262;2023-08-24T13:30:16;98102.06;;;35.07;44.21
7760;BME280;3924;48.830;9.262;2023-08-24T13:32:42;98089.69;;;35.14;43.79